sensor_id;sensor_type;location;lat;lon;timestamp;pressure;altitude;pressure_sealevel;temperature;humidity
3780;BME280;1905;52.482;9.802;2023-04-27T00:02:06;101459.63;;;7.87;66.26
3780;BME280;1905;52.482;9.802;2023-04-27T00:04:34;101465.75;;;7.88;66.50
3780;BME280;1905;52.482;9.802;2023-04-27T00:07:03;101460.50;;;7.88;66.09
3780;BME280;1905;52.482;9.802;2023-04-27T00:09:30;101462.25;;;7.86;66.69
3780;BME280;1905;52.482;9.802;2023-04-27T00:12:00;101460.50;;;7.88;66.60
3780;BME280;1905;52.482;9.802;2023-04-27T00:14:29;101459.69;;;7.84;66.47
3780;BME280;1905;52.482;9.802;2023-04-27T00:16:57;101458.81;;;7.84;66.17
3780;BME280;1905;52.482;9.802;2023-04-27T00:19:24;101458.81;;;7.84;66.04
3780;BME280;1905;52.482;9.802;2023-04-27T00:21:52;101459.72;;;7.83;66.37
3780;BME280;1905;52.482;9.802;2023-04-27T00:24:19;101456.25;;;7.80;66.58
3780;BME280;1905;52.482;9.802;2023-04-27T00:26:47;101457.09;;;7.83;66.82
3780;BME280;1905;52.482;9.802;2023-04-27T00:29:14;101457.16;;;7.79;66.01
3780;BME280;1905;52.482;9.802;2023-04-27T00:31:43;101460.66;;;7.78;66.01
3780;BME280;1905;52.482;9.802;2023-04-27T00:34:10;101446.63;;;7.79;65.84
3780;BME280;1905;52.482;9.802;2023-04-27T00:36:38;101452.81;;;7.77;66.15
3780;BME280;1905;52.482;9.802;2023-04-27T00:39:05;101452.00;;;7.73;66.41
3780;BME280;1905;52.482;9.802;2023-04-27T00:41:35;101454.66;;;7.72;66.20
3780;BME280;1905;52.482;9.802;2023-04-27T00:44:04;101453.81;;;7.71;66.07
3780;BME280;1905;52.482;9.802;2023-04-27T00:46:33;101459.94;;;7.70;66.80
3780;BME280;1905;52.482;9.802;2023-04-27T00:49:03;101460.81;;;7.71;66.06
3780;BME280;1905;52.482;9.802;2023-04-27T00:51:31;101451.19;;;7.70;66.13
3780;BME280;1905;52.482;9.802;2023-04-27T00:54:00;101460.00;;;7.69;66.19
3780;BME280;1905;52.482;9.802;2023-04-27T00:56:29;101454.78;;;7.66;66.26
3780;BME280;1905;52.482;9.802;2023-04-27T00:58:57;101459.19;;;7.65;66.48
3780;BME280;1905;52.482;9.802;2023-04-27T01:01:24;101465.31;;;7.64;67.08
3780;BME280;1905;52.482;9.802;2023-04-27T01:03:52;101468.00;;;7.61;66.23
3780;BME280;1905;52.482;9.802;2023-04-27T01:06:22;101468.06;;;7.58;66.56
3780;BME280;1905;52.482;9.802;2023-04-27T01:08:50;101463.78;;;7.53;66.90
3780;BME280;1905;52.482;9.802;2023-04-27T01:11:18;101471.72;;;7.51;67.04
3780;BME280;1905;52.482;9.802;2023-04-27T01:13:45;101473.56;;;7.46;66.72
3780;BME280;1905;52.482;9.802;2023-04-27T01:16:13;101472.69;;;7.47;66.62
3780;BME280;1905;52.482;9.802;2023-04-27T01:18:40;101469.34;;;7.38;67.04
3780;BME280;1905;52.482;9.802;2023-04-27T01:21:08;101470.22;;;7.38;67.09
3780;BME280;1905;52.482;9.802;2023-04-27T01:23:37;101477.31;;;7.33;67.07
3780;BME280;1905;52.482;9.802;2023-04-27T01:26:04;101479.16;;;7.28;67.52
3780;BME280;1905;52.482;9.802;2023-04-27T01:28:32;101479.19;;;7.25;67.54
3780;BME280;1905;52.482;9.802;2023-04-27T01:30:59;101492.44;;;7.19;67.96
3780;BME280;1905;52.482;9.802;2023-04-27T01:33:27;101488.19;;;7.12;67.66
3780;BME280;1905;52.482;9.802;2023-04-27T01:35:54;101495.19;;;7.10;67.78
3780;BME280;1905;52.482;9.802;2023-04-27T01:38:22;101497.03;;;7.05;67.63
3780;BME280;1905;52.482;9.802;2023-04-27T01:40:51;101503.16;;;7.04;67.85
3780;BME280;1905;52.482;9.802;2023-04-27T01:43:20;101511.13;;;7.01;67.57
3780;BME280;1905;52.482;9.802;2023-04-27T01:45:48;101507.75;;;6.93;68.23
3780;BME280;1905;52.482;9.802;2023-04-27T01:48:15;101522.63;;;6.92;67.73
3780;BME280;1905;52.482;9.802;2023-04-27T01:50:43;101521.88;;;6.84;68.54
3780;BME280;1905;52.482;9.802;2023-04-27T01:53:10;101520.22;;;6.79;68.54
3780;BME280;1905;52.482;9.802;2023-04-27T01:55:38;101536.00;;;6.76;68.54
3780;BME280;1905;52.482;9.802;2023-04-27T01:58:07;101530.78;;;6.73;68.57
3780;BME280;1905;52.482;9.802;2023-04-27T02:00:34;101539.59;;;6.69;68.89
3780;BME280;1905;52.482;9.802;2023-04-27T02:03:02;101544.91;;;6.64;68.82
3780;BME280;1905;52.482;9.802;2023-04-27T02:05:30;101544.09;;;6.59;69.12
3780;BME280;1905;52.482;9.802;2023-04-27T02:07:57;101536.31;;;6.54;69.15
3780;BME280;1905;52.482;9.802;2023-04-27T02:10:25;101536.38;;;6.48;68.89
3780;BME280;1905;52.482;9.802;2023-04-27T02:12:55;101550.38;;;6.47;69.39
3780;BME280;1905;52.482;9.802;2023-04-27T02:15:25;101553.03;;;6.44;69.09
3780;BME280;1905;52.482;9.802;2023-04-27T02:17:53;101556.59;;;6.39;68.82
3780;BME280;1905;52.482;9.802;2023-04-27T02:20:21;101551.44;;;6.34;69.41
3780;BME280;1905;52.482;9.802;2023-04-27T02:22:49;101553.19;;;6.35;69.50
3780;BME280;1905;52.482;9.802;2023-04-27T02:25:16;101564.56;;;6.31;69.19
3780;BME280;1905;52.482;9.802;2023-04-27T02:27:44;101564.59;;;6.28;69.49
3780;BME280;1905;52.482;9.802;2023-04-27T02:30:13;101557.72;;;6.21;69.83
3780;BME280;1905;52.482;9.802;2023-04-27T02:32:42;101556.88;;;6.18;69.34
3780;BME280;1905;52.482;9.802;2023-04-27T02:35:10;101561.28;;;6.16;69.34
3780;BME280;1905;52.482;9.802;2023-04-27T02:37:38;101556.91;;;6.15;69.54
3780;BME280;1905;52.482;9.802;2023-04-27T02:40:06;101559.56;;;6.13;69.52
3780;BME280;1905;52.482;9.802;2023-04-27T02:42:34;101552.69;;;6.03;69.72
3780;BME280;1905;52.482;9.802;2023-04-27T02:45:05;101561.44;;;6.02;70.14
3780;BME280;1905;52.482;9.802;2023-04-27T02:47:35;101554.47;;;5.98;70.10
3780;BME280;1905;52.482;9.802;2023-04-27T02:50:04;101551.88;;;5.96;69.74
3780;BME280;1905;52.482;9.802;2023-04-27T02:52:34;101559.78;;;5.95;69.58
3780;BME280;1905;52.482;9.802;2023-04-27T02:55:01;101547.59;;;5.88;70.25
3780;BME280;1905;52.482;9.802;2023-04-27T02:57:29;101557.22;;;5.86;70.58
3780;BME280;1905;52.482;9.802;2023-04-27T02:59:57;101558.97;;;5.87;70.18
3780;BME280;1905;52.482;9.802;2023-04-27T03:02:24;101559.84;;;5.83;69.70
3780;BME280;1905;52.482;9.802;2023-04-27T03:04:52;101553.78;;;5.78;69.84
3780;BME280;1905;52.482;9.802;2023-04-27T03:07:21;101552.94;;;5.74;70.50
3780;BME280;1905;52.482;9.802;2023-04-27T03:09:49;101545.13;;;5.70;70.30
3780;BME280;1905;52.482;9.802;2023-04-27T03:12:17;101556.50;;;5.69;69.90
3780;BME280;1905;52.482;9.802;2023-04-27T03:14:44;101553.88;;;5.69;70.08
3780;BME280;1905;52.482;9.802;2023-04-27T03:17:12;101556.59;;;5.60;70.47
3780;BME280;1905;52.482;9.802;2023-04-27T03:19:39;101561.00;;;5.56;70.61
3780;BME280;1905;52.482;9.802;2023-04-27T03:22:07;101553.13;;;5.55;70.26
3780;BME280;1905;52.482;9.802;2023-04-27T03:24:36;101560.16;;;5.50;70.59
3780;BME280;1905;52.482;9.802;2023-04-27T03:27:03;101560.19;;;5.47;70.06
3780;BME280;1905;52.482;9.802;2023-04-27T03:29:31;101560.19;;;5.47;70.88
3780;BME280;1905;52.482;9.802;2023-04-27T03:31:58;101565.44;;;5.43;70.78
3780;BME280;1905;52.482;9.802;2023-04-27T03:34:26;101561.13;;;5.39;70.06
3780;BME280;1905;52.482;9.802;2023-04-27T03:36:54;101562.91;;;5.37;70.28
3780;BME280;1905;52.482;9.802;2023-04-27T03:39:21;101569.91;;;5.34;70.17
3780;BME280;1905;52.482;9.802;2023-04-27T03:41:50;101566.44;;;5.30;70.61
3780;BME280;1905;52.482;9.802;2023-04-27T03:44:17;101569.06;;;5.30;71.02
3780;BME280;1905;52.482;9.802;2023-04-27T03:46:45;101566.50;;;5.24;71.00
3780;BME280;1905;52.482;9.802;2023-04-27T03:49:13;101563.00;;;5.24;70.51
3780;BME280;1905;52.482;9.802;2023-04-27T03:51:41;101573.50;;;5.21;70.21
3780;BME280;1905;52.482;9.802;2023-04-27T03:54:09;101571.78;;;5.18;70.64
3780;BME280;1905;52.482;9.802;2023-04-27T03:56:36;101579.63;;;5.18;70.45
3780;BME280;1905;52.482;9.802;2023-04-27T03:59:06;101576.16;;;5.16;70.70
3780;BME280;1905;52.482;9.802;2023-04-27T04:01:35;101585.81;;;5.10;70.78
3780;BME280;1905;52.482;9.802;2023-04-27T04:04:05;101572.69;;;5.08;70.35
3780;BME280;1905;52.482;9.802;2023-04-27T04:06:33;101575.34;;;5.07;70.76
3780;BME280;1905;52.482;9.802;2023-04-27T04:09:01;101574.47;;;5.06;70.54
3780;BME280;1905;52.482;9.802;2023-04-27T04:11:30;101586.72;;;5.04;71.23
3780;BME280;1905;52.482;9.802;2023-04-27T04:14:00;101585.88;;;4.99;70.54
3780;BME280;1905;52.482;9.802;2023-04-27T04:16:29;101591.97;;;5.00;70.57
3780;BME280;1905;52.482;9.802;2023-04-27T04:18:57;101582.41;;;4.93;70.44
3780;BME280;1905;52.482;9.802;2023-04-27T04:21:24;101590.28;;;4.91;71.06
3780;BME280;1905;52.482;9.802;2023-04-27T04:23:52;101589.44;;;4.86;70.75
3780;BME280;1905;52.482;9.802;2023-04-27T04:26:19;101591.16;;;4.87;70.32
3780;BME280;1905;52.482;9.802;2023-04-27T04:28:48;101590.31;;;4.82;70.91
3780;BME280;1905;52.482;9.802;2023-04-27T04:31:16;101594.69;;;4.81;70.91
3780;BME280;1905;52.482;9.802;2023-04-27T04:33:45;101597.31;;;4.80;70.73
3780;BME280;1905;52.482;9.802;2023-04-27T04:36:14;101592.09;;;4.77;71.29
3780;BME280;1905;52.482;9.802;2023-04-27T04:38:41;101592.97;;;4.76;71.68
3780;BME280;1905;52.482;9.802;2023-04-27T04:41:09;101588.63;;;4.75;71.31
3780;BME280;1905;52.482;9.802;2023-04-27T04:43:37;101593.88;;;4.72;71.61
3780;BME280;1905;52.482;9.802;2023-04-27T04:46:05;101592.13;;;4.72;71.05
3780;BME280;1905;52.482;9.802;2023-04-27T04:48:33;101597.38;;;4.68;71.12
3780;BME280;1905;52.482;9.802;2023-04-27T04:51:03;101599.13;;;4.72;71.32
3780;BME280;1905;52.482;9.802;2023-04-27T04:53:32;101605.22;;;4.68;71.01
3780;BME280;1905;52.482;9.802;2023-04-27T04:56:07;101605.22;;;4.68;71.07
3780;BME280;1905;52.482;9.802;2023-04-27T04:58:35;101594.78;;;4.65;71.32
3780;BME280;1905;52.482;9.802;2023-04-27T05:01:03;101598.25;;;4.65;71.54
3780;BME280;1905;52.482;9.802;2023-04-27T05:03:32;101595.66;;;4.64;71.11
3780;BME280;1905;52.482;9.802;2023-04-27T05:05:59;101613.13;;;4.62;71.50
3780;BME280;1905;52.482;9.802;2023-04-27T05:08:28;101611.34;;;4.64;71.49
3780;BME280;1905;52.482;9.802;2023-04-27T05:10:56;101605.25;;;4.66;70.95
3780;BME280;1905;52.482;9.802;2023-04-27T05:13:23;101612.25;;;4.64;70.46
3780;BME280;1905;52.482;9.802;2023-04-27T05:15:52;101607.84;;;4.65;70.78
3780;BME280;1905;52.482;9.802;2023-04-27T05:18:19;101615.72;;;4.63;71.28
3780;BME280;1905;52.482;9.802;2023-04-27T05:20:47;101623.56;;;4.63;70.62
3780;BME280;1905;52.482;9.802;2023-04-27T05:23:14;101623.53;;;4.68;70.98
3780;BME280;1905;52.482;9.802;2023-04-27T05:25:43;101627.06;;;4.64;71.30
3780;BME280;1905;52.482;9.802;2023-04-27T05:28:11;101632.28;;;4.65;71.13
3780;BME280;1905;52.482;9.802;2023-04-27T05:30:38;101629.66;;;4.64;70.87
3780;BME280;1905;52.482;9.802;2023-04-27T05:33:06;101631.41;;;4.63;70.58
3780;BME280;1905;52.482;9.802;2023-04-27T05:35:34;101635.75;;;4.66;70.36
3780;BME280;1905;52.482;9.802;2023-04-27T05:38:01;101638.38;;;4.69;71.33
3780;BME280;1905;52.482;9.802;2023-04-27T05:40:29;101642.75;;;4.67;71.16
3780;BME280;1905;52.482;9.802;2023-04-27T05:42:58;101642.75;;;4.67;70.75
3780;BME280;1905;52.482;9.802;2023-04-27T05:45:28;101636.63;;;4.68;70.86
3780;BME280;1905;52.482;9.802;2023-04-27T05:47:56;101646.22;;;4.66;71.36
3780;BME280;1905;52.482;9.802;2023-04-27T05:50:24;101641.84;;;4.68;70.70
3780;BME280;1905;52.482;9.802;2023-04-27T05:52:51;101651.44;;;4.72;71.18
3780;BME280;1905;52.482;9.802;2023-04-27T05:55:19;101656.69;;;4.69;71.46
3780;BME280;1905;52.482;9.802;2023-04-27T05:57:47;101651.44;;;4.72;71.25
3780;BME280;1905;52.482;9.802;2023-04-27T06:00:31;101647.91;;;4.76;70.72
3780;BME280;1905;52.482;9.802;2023-04-27T06:02:58;101654.91;;;4.74;71.37
3780;BME280;1905;52.482;9.802;2023-04-27T06:05:26;101655.78;;;4.74;70.50
3780;BME280;1905;52.482;9.802;2023-04-27T06:07:54;101652.31;;;4.72;71.33
3780;BME280;1905;52.482;9.802;2023-04-27T06:10:21;101653.16;;;4.76;72.36
3780;BME280;1905;52.482;9.802;2023-04-27T06:12:49;101649.66;;;4.83;72.25
3780;BME280;1905;52.482;9.802;2023-04-27T06:15:17;101646.13;;;4.81;71.87
3780;BME280;1905;52.482;9.802;2023-04-27T06:17:46;101654.88;;;4.86;73.49
3780;BME280;1905;52.482;9.802;2023-04-27T06:20:14;101649.63;;;4.89;72.34
3780;BME280;1905;52.482;9.802;2023-04-27T06:22:42;101663.56;;;4.91;73.43
3780;BME280;1905;52.482;9.802;2023-04-27T06:25:12;101660.94;;;4.91;71.80
3780;BME280;1905;52.482;9.802;2023-04-27T06:27:39;101663.50;;;5.00;74.15
3780;BME280;1905;52.482;9.802;2023-04-27T06:30:07;101661.75;;;5.05;74.65
3780;BME280;1905;52.482;9.802;2023-04-27T06:32:35;101665.22;;;5.04;71.55
3780;BME280;1905;52.482;9.802;2023-04-27T06:35:04;101660.81;;;5.12;73.90
3780;BME280;1905;52.482;9.802;2023-04-27T06:37:32;101668.66;;;5.15;73.72
3780;BME280;1905;52.482;9.802;2023-04-27T06:39:59;101666.00;;;5.20;73.72
3780;BME280;1905;52.482;9.802;2023-04-27T06:42:27;101672.94;;;5.28;74.13
3780;BME280;1905;52.482;9.802;2023-04-27T06:44:54;101674.66;;;5.31;73.78
3780;BME280;1905;52.482;9.802;2023-04-27T06:47:22;101672.91;;;5.33;73.07
3780;BME280;1905;52.482;9.802;2023-04-27T06:49:50;101668.53;;;5.33;72.65
3780;BME280;1905;52.482;9.802;2023-04-27T06:52:19;101665.91;;;5.36;71.42
3780;BME280;1905;52.482;9.802;2023-04-27T06:54:47;101669.38;;;5.43;72.64
3780;BME280;1905;52.482;9.802;2023-04-27T06:57:15;101671.97;;;5.45;73.48
3780;BME280;1905;52.482;9.802;2023-04-27T06:59:42;101676.28;;;5.50;72.55
3780;BME280;1905;52.482;9.802;2023-04-27T07:02:10;101680.63;;;5.56;73.29
3780;BME280;1905;52.482;9.802;2023-04-27T07:04:38;101676.19;;;5.64;73.30
3780;BME280;1905;52.482;9.802;2023-04-27T07:07:05;101673.56;;;5.65;72.07
3780;BME280;1905;52.482;9.802;2023-04-27T07:09:34;101668.28;;;5.73;73.27
3780;BME280;1905;52.482;9.802;2023-04-27T07:12:02;101674.34;;;5.78;72.47
3780;BME280;1905;52.482;9.802;2023-04-27T07:14:30;101668.19;;;5.79;71.60
3780;BME280;1905;52.482;9.802;2023-04-27T07:16:59;101674.28;;;5.88;73.30
3780;BME280;1905;52.482;9.802;2023-04-27T07:19:26;101682.97;;;5.95;72.54
3780;BME280;1905;52.482;9.802;2023-04-27T07:21:54;101679.44;;;6.01;72.73
3780;BME280;1905;52.482;9.802;2023-04-27T07:24:21;101681.09;;;6.08;72.36
3780;BME280;1905;52.482;9.802;2023-04-27T07:26:50;101681.94;;;6.14;71.95
3780;BME280;1905;52.482;9.802;2023-04-27T07:29:18;101681.88;;;6.17;71.17
3780;BME280;1905;52.482;9.802;2023-04-27T07:31:53;101681.84;;;6.20;70.51
3780;BME280;1905;52.482;9.802;2023-04-27T07:34:20;101681.75;;;6.29;70.46
3780;BME280;1905;52.482;9.802;2023-04-27T07:36:48;101674.72;;;6.34;71.17
3780;BME280;1905;52.482;9.802;2023-04-27T07:39:15;101670.19;;;6.47;71.09
3780;BME280;1905;52.482;9.802;2023-04-27T07:41:44;101673.66;;;6.50;70.57
3780;BME280;1905;52.482;9.802;2023-04-27T07:44:13;101673.53;;;6.61;69.73
3780;BME280;1905;52.482;9.802;2023-04-27T07:46:40;101691.88;;;6.66;69.58
3780;BME280;1905;52.482;9.802;2023-04-27T07:49:08;101681.22;;;6.78;67.55
3780;BME280;1905;52.482;9.802;2023-04-27T07:51:35;101681.13;;;6.87;68.52
3780;BME280;1905;52.482;9.802;2023-04-27T07:54:03;101674.84;;;6.98;68.15
3780;BME280;1905;52.482;9.802;2023-04-27T07:56:30;101679.09;;;7.07;68.24
3780;BME280;1905;52.482;9.802;2023-04-27T07:58:58;101680.72;;;7.17;68.06
3780;BME280;1905;52.482;9.802;2023-04-27T08:01:27;101677.97;;;7.23;67.81
3780;BME280;1905;52.482;9.802;2023-04-27T08:03:54;101670.94;;;7.27;66.73
3780;BME280;1905;52.482;9.802;2023-04-27T08:06:22;101670.03;;;7.29;67.02
3780;BME280;1905;52.482;9.802;2023-04-27T08:08:50;101669.81;;;7.44;67.00
3780;BME280;1905;52.482;9.802;2023-04-27T08:11:18;101664.31;;;7.59;66.47
3780;BME280;1905;52.482;9.802;2023-04-27T08:13:45;101662.38;;;7.70;66.27
3780;BME280;1905;52.482;9.802;2023-04-27T08:16:13;101663.03;;;7.83;65.55
3780;BME280;1905;52.482;9.802;2023-04-27T08:18:42;101661.16;;;7.91;66.25
3780;BME280;1905;52.482;9.802;2023-04-27T08:21:10;101658.22;;;8.08;65.34
3780;BME280;1905;52.482;9.802;2023-04-27T08:23:37;101657.09;;;8.21;67.06
3780;BME280;1905;52.482;9.802;2023-04-27T08:26:05;101663.03;;;8.35;66.06
3780;BME280;1905;52.482;9.802;2023-04-27T08:28:32;101664.59;;;8.45;64.25
3780;BME280;1905;52.482;9.802;2023-04-27T08:31:00;101657.22;;;8.62;65.86
3780;BME280;1905;52.482;9.802;2023-04-27T08:33:28;101649.75;;;8.85;67.07
3780;BME280;1905;52.482;9.802;2023-04-27T08:35:57;101649.41;;;9.01;67.48
3780;BME280;1905;52.482;9.802;2023-04-27T08:38:24;101642.94;;;9.15;66.42
3780;BME280;1905;52.482;9.802;2023-04-27T08:40:52;101649.78;;;9.22;65.15
3780;BME280;1905;52.482;9.802;2023-04-27T08:43:19;101646.91;;;9.33;66.35
3780;BME280;1905;52.482;9.802;2023-04-27T08:45:48;101649.34;;;9.42;66.57
3780;BME280;1905;52.482;9.802;2023-04-27T08:48:16;101649.16;;;9.49;66.42
3780;BME280;1905;52.482;9.802;2023-04-27T08:50:44;101655.22;;;9.53;62.88
3780;BME280;1905;52.482;9.802;2023-04-27T08:53:19;101649.63;;;9.65;65.29
3780;BME280;1905;52.482;9.802;2023-04-27T08:55:47;101645.09;;;9.72;63.52
3780;BME280;1905;52.482;9.802;2023-04-27T08:58:15;101646.59;;;9.82;64.92
3780;BME280;1905;52.482;9.802;2023-04-27T09:00:43;101639.41;;;9.88;65.42
3780;BME280;1905;52.482;9.802;2023-04-27T09:03:23;101637.63;;;9.89;62.76
3780;BME280;1905;52.482;9.802;2023-04-27T09:05:51;101630.53;;;9.91;61.35
3780;BME280;1905;52.482;9.802;2023-04-27T09:08:41;101641.09;;;9.91;62.26
3780;BME280;1905;52.482;9.802;2023-04-27T09:11:09;101634.78;;;9.96;60.91
3780;BME280;1905;52.482;9.802;2023-04-27T09:13:38;101640.75;;;10.04;59.93
3780;BME280;1905;52.482;9.802;2023-04-27T09:16:06;101631.69;;;10.16;61.78
3780;BME280;1905;52.482;9.802;2023-04-27T09:18:35;101632.34;;;10.24;58.87
3780;BME280;1905;52.482;9.802;2023-04-27T09:21:03;101631.25;;;10.31;60.86
3780;BME280;1905;52.482;9.802;2023-04-27T09:23:33;101626.75;;;10.35;59.37
3780;BME280;1905;52.482;9.802;2023-04-27T09:26:04;101630.88;;;10.45;61.67
3780;BME280;1905;52.482;9.802;2023-04-27T09:28:36;101640.44;;;10.49;58.23
3780;BME280;1905;52.482;9.802;2023-04-27T09:31:04;101648.16;;;10.56;59.12
3780;BME280;1905;52.482;9.802;2023-04-27T09:33:34;101641.75;;;10.65;60.36
3780;BME280;1905;52.482;9.802;2023-04-27T09:36:04;101641.69;;;10.66;59.98
3780;BME280;1905;52.482;9.802;2023-04-27T09:38:32;101633.63;;;10.71;61.14
3780;BME280;1905;52.482;9.802;2023-04-27T09:41:00;101625.69;;;10.71;57.97
3780;BME280;1905;52.482;9.802;2023-04-27T09:43:30;101623.81;;;10.76;59.25
3780;BME280;1905;52.482;9.802;2023-04-27T09:45:59;101621.16;;;10.76;58.01
3780;BME280;1905;52.482;9.802;2023-04-27T09:48:27;101625.66;;;10.72;55.05
3780;BME280;1905;52.482;9.802;2023-04-27T09:50:55;101618.69;;;10.70;55.96
3780;BME280;1905;52.482;9.802;2023-04-27T09:53:25;101617.78;;;10.71;54.58
3780;BME280;1905;52.482;9.802;2023-04-27T09:56:02;101631.28;;;10.62;52.29
3780;BME280;1905;52.482;9.802;2023-04-27T09:59:01;101621.50;;;10.64;54.96
3780;BME280;1905;52.482;9.802;2023-04-27T10:01:38;101620.63;;;10.65;56.12
3780;BME280;1905;52.482;9.802;2023-04-27T10:04:19;101629.38;;;10.65;54.97
3780;BME280;1905;52.482;9.802;2023-04-27T10:06:58;101621.47;;;10.65;52.96
3780;BME280;1905;52.482;9.802;2023-04-27T10:09:27;101622.94;;;10.75;54.88
3780;BME280;1905;52.482;9.802;2023-04-27T10:12:13;101617.44;;;10.83;57.32
3780;BME280;1905;52.482;9.802;2023-04-27T10:14:49;101622.88;;;10.77;56.47
3780;BME280;1905;52.482;9.802;2023-04-27T10:17:18;101613.34;;;10.73;56.55
3780;BME280;1905;52.482;9.802;2023-04-27T10:19:55;101618.41;;;10.79;57.56
3780;BME280;1905;52.482;9.802;2023-04-27T10:22:36;101619.03;;;10.89;58.52
3780;BME280;1905;52.482;9.802;2023-04-27T10:25:18;101617.97;;;10.94;57.89
3780;BME280;1905;52.482;9.802;2023-04-27T10:27:48;101616.13;;;10.96;54.54
3780;BME280;1905;52.482;9.802;2023-04-27T10:30:20;101614.22;;;11.01;55.14
3780;BME280;1905;52.482;9.802;2023-04-27T10:32:52;101614.84;;;11.09;54.91
3780;BME280;1905;52.482;9.802;2023-04-27T10:35:20;101612.03;;;11.15;57.28
3780;BME280;1905;52.482;9.802;2023-04-27T10:37:48;101612.75;;;11.20;53.68
3780;BME280;1905;52.482;9.802;2023-04-27T10:40:17;101609.81;;;11.29;57.03
3780;BME280;1905;52.482;9.802;2023-04-27T10:42:46;101617.59;;;11.34;56.27
3780;BME280;1905;52.482;9.802;2023-04-27T10:45:26;101623.56;;;11.41;57.25
3780;BME280;1905;52.482;9.802;2023-04-27T10:47:58;101623.38;;;11.47;57.01
3780;BME280;1905;52.482;9.802;2023-04-27T10:50:27;101625.81;;;11.53;54.55
3780;BME280;1905;52.482;9.802;2023-04-27T10:52:58;101618.56;;;11.58;55.45
3780;BME280;1905;52.482;9.802;2023-04-27T10:55:27;101615.75;;;11.64;54.95
3780;BME280;1905;52.482;9.802;2023-04-27T10:57:55;101620.78;;;11.73;56.93
3780;BME280;1905;52.482;9.802;2023-04-27T11:00:23;101610.88;;;11.78;56.23
3780;BME280;1905;52.482;9.802;2023-04-27T11:02:54;101614.41;;;11.78;56.67
3780;BME280;1905;52.482;9.802;2023-04-27T11:05:23;101607.94;;;11.87;56.70
3780;BME280;1905;52.482;9.802;2023-04-27T11:08:03;101604.25;;;11.91;57.91
3780;BME280;1905;52.482;9.802;2023-04-27T11:10:32;101598.66;;;12.00;58.08
3780;BME280;1905;52.482;9.802;2023-04-27T11:13:08;101605.34;;;12.10;55.45
3780;BME280;1905;52.482;9.802;2023-04-27T11:15:46;101605.22;;;12.15;52.40
3780;BME280;1905;52.482;9.802;2023-04-27T11:18:17;101600.50;;;12.23;56.70
3780;BME280;1905;52.482;9.802;2023-04-27T11:20:47;101606.44;;;12.29;57.10
3780;BME280;1905;52.482;9.802;2023-04-27T11:23:23;101598.97;;;12.40;58.37
3780;BME280;1905;52.482;9.802;2023-04-27T11:25:51;101596.03;;;12.48;57.86
3780;BME280;1905;52.482;9.802;2023-04-27T11:28:19;101599.16;;;12.59;58.38
3780;BME280;1905;52.482;9.802;2023-04-27T11:30:54;101597.84;;;12.71;59.75
3780;BME280;1905;52.482;9.802;2023-04-27T11:33:23;101601.94;;;12.79;56.86
3780;BME280;1905;52.482;9.802;2023-04-27T11:35:51;101597.22;;;12.86;56.74
3780;BME280;1905;52.482;9.802;2023-04-27T11:38:19;101597.88;;;12.92;57.01
3780;BME280;1905;52.482;9.802;2023-04-27T11:40:58;101605.41;;;13.03;59.23
3780;BME280;1905;52.482;9.802;2023-04-27T11:43:26;101601.50;;;13.13;58.67
3780;BME280;1905;52.482;9.802;2023-04-27T11:45:54;101595.06;;;13.20;59.27
3780;BME280;1905;52.482;9.802;2023-04-27T11:48:26;101599.16;;;13.27;58.56
3780;BME280;1905;52.482;9.802;2023-04-27T11:50:56;101592.84;;;13.31;58.83
3780;BME280;1905;52.482;9.802;2023-04-27T11:53:29;101603.16;;;13.37;58.56
3780;BME280;1905;52.482;9.802;2023-04-27T11:55:58;101594.19;;;13.41;57.82
3780;BME280;1905;52.482;9.802;2023-04-27T11:58:27;101579.69;;;13.28;51.49
3780;BME280;1905;52.482;9.802;2023-04-27T12:00:56;101589.84;;;13.39;56.07
3780;BME280;1905;52.482;9.802;2023-04-27T12:03:23;101587.97;;;13.42;54.73
3780;BME280;1905;52.482;9.802;2023-04-27T12:05:53;101584.13;;;13.49;56.28
3780;BME280;1905;52.482;9.802;2023-04-27T12:08:25;101591.16;;;13.50;55.03
3780;BME280;1905;52.482;9.802;2023-04-27T12:10:53;101588.31;;;13.55;57.13
3780;BME280;1905;52.482;9.802;2023-04-27T12:13:21;101585.56;;;13.56;56.55
3780;BME280;1905;52.482;9.802;2023-04-27T12:15:49;101582.75;;;13.61;56.76
3780;BME280;1905;52.482;9.802;2023-04-27T12:18:18;101580.09;;;13.61;55.43
3780;BME280;1905;52.482;9.802;2023-04-27T12:20:46;101578.16;;;13.64;54.22
3780;BME280;1905;52.482;9.802;2023-04-27T12:23:14;101578.03;;;13.67;55.97
3780;BME280;1905;52.482;9.802;2023-04-27T12:25:43;101576.91;;;13.73;57.37
3780;BME280;1905;52.482;9.802;2023-04-27T12:28:10;101577.66;;;13.77;56.16
3780;BME280;1905;52.482;9.802;2023-04-27T12:30:44;101574.09;;;13.78;56.90
3780;BME280;1905;52.482;9.802;2023-04-27T12:33:12;101575.78;;;13.79;51.70
3780;BME280;1905;52.482;9.802;2023-04-27T12:35:39;101579.84;;;13.87;57.60
3780;BME280;1905;52.482;9.802;2023-04-27T12:38:07;101568.22;;;13.90;56.12
3780;BME280;1905;52.482;9.802;2023-04-27T12:40:36;101566.22;;;13.95;54.97
3780;BME280;1905;52.482;9.802;2023-04-27T12:43:04;101566.34;;;13.92;54.97
3780;BME280;1905;52.482;9.802;2023-04-27T12:45:31;101568.09;;;13.93;55.94
3780;BME280;1905;52.482;9.802;2023-04-27T12:47:59;101567.84;;;13.99;56.01
3780;BME280;1905;52.482;9.802;2023-04-27T12:50:29;101568.09;;;13.93;51.03
3780;BME280;1905;52.482;9.802;2023-04-27T12:52:58;101571.53;;;13.95;54.50
3780;BME280;1905;52.482;9.802;2023-04-27T12:55:26;101568.53;;;14.02;54.79
3780;BME280;1905;52.482;9.802;2023-04-27T12:58:00;101564.84;;;14.06;56.23
3780;BME280;1905;52.482;9.802;2023-04-27T13:00:29;101569.16;;;14.09;54.26
3780;BME280;1905;52.482;9.802;2023-04-27T13:02:57;101563.56;;;14.15;55.38
3780;BME280;1905;52.482;9.802;2023-04-27T13:05:28;101560.91;;;14.15;53.52
3780;BME280;1905;52.482;9.802;2023-04-27T13:07:57;101560.84;;;14.16;52.30
3780;BME280;1905;52.482;9.802;2023-04-27T13:10:26;101561.56;;;14.20;52.54
3780;BME280;1905;52.482;9.802;2023-04-27T13:12:54;101561.44;;;14.23;53.83
3780;BME280;1905;52.482;9.802;2023-04-27T13:15:23;101561.97;;;14.31;56.33
3780;BME280;1905;52.482;9.802;2023-04-27T13:17:50;101557.34;;;14.36;55.02
3780;BME280;1905;52.482;9.802;2023-04-27T13:20:19;101558.13;;;14.38;52.53
3780;BME280;1905;52.482;9.802;2023-04-27T13:22:47;101556.00;;;14.26;46.70
3780;BME280;1905;52.482;9.802;2023-04-27T13:25:15;101562.66;;;14.36;52.04
3780;BME280;1905;52.482;9.802;2023-04-27T13:27:42;101556.78;;;14.48;54.14